Time;durP1;ratioP1;P1;durP2;ratioP2;P2;SDS_P1;SDS_P2;PMS_P1;PMS_P2;Temp;Humidity;BMP_temperature;BMP_pressure;BME280_temperature;BME280_humidity;BME280_pressure;Samples;Min_cycle;Max_cycle;Signal;HPM_P1;HPM_P2
2020/12/11 00:02:51;;;;;;;;;62.00;47.25;;;;;7.62;48.23;98019.31;6198562;28;98285;-58
2020/12/11 00:05:53;;;;;;;;;62.00;46.00;;;;;7.63;48.26;98022.78;6193792;28;98618;-58
2020/12/11 00:08:56;;;;;;;;;61.00;46.00;;;;;7.50;48.27;97999.63;6196613;28;98686;-58
2020/12/11 00:11:58;;;;;;;;;59.40;45.00;;;;;7.64;48.27;98022.56;6182078;28;97306;-58
2020/12/11 00:15:00;;;;;;;;;62.00;48.00;;;;;7.60;48.11;98023.25;6198336;28;97480;-58
2020/12/11 00:18:02;;;;;;;;;62.00;48.40;;;;;7.57;48.17;98023.69;6200120;28;98381;-58
2020/12/11 00:21:04;;;;;;;;;63.00;48.00;;;;;7.43;47.88;97998.84;6198357;28;96758;-58
2020/12/11 00:24:05;;;;;;;;;62.80;48.00;;;;;7.25;47.71;97997.00;6200164;28;96629;-58
2020/12/11 00:27:08;;;;;;;;;64.00;48.00;;;;;7.48;47.79;98027.72;6198713;28;97202;-58
2020/12/11 00:30:09;;;;;;;;;62.00;48.00;;;;;7.43;47.72;98027.56;6193266;28;97276;-58
2020/12/11 00:33:11;;;;;;;;;64.60;50.00;;;;;7.41;47.62;98025.09;6194876;28;97267;-58
2020/12/11 00:36:12;;;;;;;;;63.75;48.75;;;;;7.39;47.68;98029.84;6195271;28;97657;-58
2020/12/11 00:39:13;;;;;;;;;64.00;48.40;;;;;7.30;47.84;98017.78;6192721;28;96999;-58
2020/12/11 00:42:20;;;;;;;;;62.60;48.00;;;;;7.28;47.90;98036.75;6192081;28;97162;-58
2020/12/11 00:45:21;;;;;;;;;63.40;48.40;;;;;7.19;47.92;98027.38;6191587;28;97483;-58
2020/12/11 00:48:23;;;;;;;;;62.00;48.00;;;;;7.18;47.85;98039.16;6197235;28;97663;-58
2020/12/11 00:51:24;;;;;;;;;62.20;47.40;;;;;7.13;47.76;98033.63;6191349;28;99194;-58
2020/12/11 00:54:26;;;;;;;;;63.00;47.75;;;;;7.12;47.98;98031.16;6195941;28;97324;-58
2020/12/11 00:57:28;;;;;;;;;62.00;46.60;;;;;7.10;47.79;98035.91;6192281;28;97127;-58
2020/12/11 01:00:30;;;;;;;;;63.80;48.80;;;;;7.10;47.54;98038.59;6197644;28;97848;-58
2020/12/11 01:03:31;;;;;;;;;61.00;46.60;;;;;7.13;47.92;98032.81;6191873;28;97475;-58
2020/12/11 01:06:33;;;;;;;;;62.75;46.00;;;;;7.12;47.44;98045.38;6200533;28;97821;-58
2020/12/11 01:09:34;;;;;;;;;61.60;46.00;;;;;6.95;47.56;98017.50;6190401;28;97428;-58
2020/12/11 01:12:35;;;;;;;;;58.00;45.50;;;;;7.07;47.81;98039.03;6197694;28;97430;-58
2020/12/11 01:15:37;;;;;;;;;61.25;46.75;;;;;6.89;48.08;98005.78;6191144;28;96686;-58
2020/12/11 01:18:38;;;;;;;;;61.40;47.00;;;;;7.03;47.67;98027.94;6197801;28;97226;-58
2020/12/11 01:21:40;;;;;;;;;63.00;47.00;;;;;7.01;47.90;98030.00;6189923;28;97148;-58
2020/12/11 01:24:41;;;;;;;;;60.00;48.00;;;;;6.90;47.99;98012.78;6182066;28;97542;-58
2020/12/11 01:27:43;;;;;;;;;61.60;46.60;;;;;6.89;47.79;98021.88;6201700;28;97496;-58
2020/12/11 01:30:44;;;;;;;;;62.25;47.50;;;;;7.00;47.51;98039.09;6187567;28;97333;-58
2020/12/11 01:33:48;;;;;;;;;59.60;46.20;;;;;6.93;47.36;98025.78;6201450;28;98529;-58
2020/12/11 01:36:49;;;;;;;;;62.00;48.00;;;;;6.93;47.38;98035.66;6192824;28;98599;-58
2020/12/11 01:39:50;;;;;;;;;61.40;48.00;;;;;6.79;47.43;98010.81;6191794;28;97207;-58
2020/12/11 01:42:52;;;;;;;;;62.40;48.20;;;;;6.80;47.86;98028.53;6196492;28;97143;-58
2020/12/11 01:45:53;;;;;;;;;61.60;46.00;;;;;6.86;47.68;98032.19;6193631;28;97510;-58
2020/12/11 01:48:56;;;;;;;;;62.00;47.00;;;;;6.57;47.54;97981.97;6200376;28;96820;-58
2020/12/11 01:51:57;;;;;;;;;61.00;48.00;;;;;6.82;47.47;98033.69;6196844;28;97303;-58
2020/12/11 01:54:58;;;;;;;;;65.00;48.20;;;;;6.83;47.46;98028.13;6205487;28;97948;-58
2020/12/11 01:58:01;;;;;;;;;62.00;48.00;;;;;6.81;47.24;98024.81;6202986;28;96636;-58
2020/12/11 02:01:02;;;;;;;;;62.20;47.80;;;;;6.81;47.67;98021.31;6201095;28;97133;-58
2020/12/11 02:04:04;;;;;;;;;63.00;48.00;;;;;6.58;47.48;97986.28;6202444;28;97102;-58
2020/12/11 02:07:06;;;;;;;;;63.00;48.00;;;;;6.78;47.24;98008.38;6195719;28;98000;-58
2020/12/11 02:10:09;;;;;;;;;66.00;49.40;;;;;6.77;47.14;98012.91;6199644;28;97407;-58
2020/12/11 02:13:11;;;;;;;;;67.00;50.00;;;;;6.80;46.92;98009.78;6197400;28;97031;-58
2020/12/11 02:16:12;;;;;;;;;65.00;48.75;;;;;6.53;46.99;97966.34;6198532;28;96855;-58
2020/12/11 02:19:14;;;;;;;;;63.00;48.00;;;;;6.57;46.92;97974.75;6196519;28;96511;-58
2020/12/11 02:22:16;;;;;;;;;62.00;48.00;;;;;6.69;46.65;97999.81;6196654;28;99007;-58
2020/12/11 02:25:17;;;;;;;;;62.25;48.25;;;;;6.62;46.25;97999.03;6202283;28;96925;-58
2020/12/11 02:28:19;;;;;;;;;62.00;48.00;;;;;6.62;46.30;97998.19;6200208;28;97013;-58
2020/12/11 02:31:20;;;;;;;;;62.00;48.00;;;;;6.57;46.28;97992.69;6202616;28;97837;-58
2020/12/11 02:34:22;;;;;;;;;62.60;48.80;;;;;6.37;47.06;97950.81;6199697;28;97230;-58
2020/12/11 02:37:24;;;;;;;;;64.60;49.60;;;;;6.60;47.28;97970.84;6196907;28;96825;-58
2020/12/11 02:40:25;;;;;;;;;64.80;50.00;;;;;6.62;47.35;97980.28;6190390;28;96481;-58
2020/12/11 02:43:27;;;;;;;;;64.60;50.00;;;;;6.61;47.01;97980.47;6194645;28;97654;-58
2020/12/11 02:46:29;;;;;;;;;61.80;48.80;;;;;6.55;46.73;97982.16;6198418;28;97252;-58
2020/12/11 02:49:30;;;;;;;;;66.00;50.00;;;;;6.49;46.86;97978.53;6194461;28;98449;-58
2020/12/11 02:52:31;;;;;;;;;65.00;48.00;;;;;6.51;46.75;97978.28;6200491;28;97273;-58
2020/12/11 02:55:36;;;;;;;;;63.00;48.00;;;;;6.50;46.58;97980.16;6194923;28;98881;-58
2020/12/11 02:58:38;;;;;;;;;59.20;46.00;;;;;6.53;47.34;97973.56;6196909;28;97316;-58
2020/12/11 03:01:39;;;;;;;;;59.50;47.00;;;;;6.42;47.45;97950.97;6204359;28;99093;-58
2020/12/11 03:04:41;;;;;;;;;61.00;47.80;;;;;6.54;47.08;97948.44;6197135;28;98693;-58
2020/12/11 03:07:42;;;;;;;;;61.00;46.60;;;;;6.66;47.13;97973.44;6193326;28;98183;-58
2020/12/11 03:10:44;;;;;;;;;63.40;49.20;;;;;6.74;47.11;97975.03;6186050;28;98000;-58
2020/12/11 03:13:46;;;;;;;;;63.00;49.00;;;;;6.50;46.65;97936.50;6193797;28;96729;-58
2020/12/11 03:16:47;;;;;;;;;62.40;48.00;;;;;6.63;46.40;97976.56;6199682;28;98667;-58
2020/12/11 03:19:50;;;;;;;;;60.60;48.00;;;;;6.49;46.30;97958.97;6193973;28;97100;-58
2020/12/11 03:22:53;;;;;;;;;60.00;46.40;;;;;6.49;46.22;97962.47;6199512;28;97438;-58
2020/12/11 03:25:55;;;;;;;;;62.00;47.00;;;;;6.36;47.09;97967.06;6195320;28;97141;-58
2020/12/11 03:28:56;;;;;;;;;62.00;47.60;;;;;6.33;46.48;97991.63;6198151;28;98441;-58
2020/12/11 03:31:58;;;;;;;;;64.33;49.00;;;;;6.27;46.51;97987.13;6195023;28;97487;-58
2020/12/11 03:34:59;;;;;;;;;63.00;48.33;;;;;6.18;46.81;97991.09;6199399;28;97176;-58
2020/12/11 03:38:01;;;;;;;;;60.80;47.00;;;;;6.18;46.72;97985.75;6200615;28;98700;-58
2020/12/11 03:41:02;;;;;;;;;62.00;48.00;;;;;6.09;46.93;97991.34;6198363;28;97108;-58
2020/12/11 03:44:08;;;;;;;;;61.75;46.00;;;;;6.15;47.06;97994.22;6200169;28;97116;-58
2020/12/11 03:47:09;;;;;;;;;62.00;48.00;;;;;5.99;46.72;97969.59;6200073;28;97646;-58
2020/12/11 03:50:11;;;;;;;;;62.00;47.40;;;;;6.09;45.93;98002.06;6192492;28;97383;-58
2020/12/11 03:53:12;;;;;;;;;61.00;47.50;;;;;6.06;46.35;98004.31;6195481;28;97382;-58
2020/12/11 03:56:15;;;;;;;;;63.80;49.40;;;;;5.79;45.83;97979.56;6196440;28;97413;-58
2020/12/11 03:59:16;;;;;;;;;64.25;49.50;;;;;5.98;46.65;98005.41;6197555;28;96842;-58
2020/12/11 04:02:18;;;;;;;;;63.50;50.00;;;;;5.96;47.93;98004.78;6197768;27;97139;-58
2020/12/11 04:05:19;;;;;;;;;64.40;48.00;;;;;6.05;47.91;98000.03;6196935;28;97487;-58
2020/12/11 04:08:20;;;;;;;;;66.25;50.00;;;;;6.14;47.78;98001.41;6197114;28;97263;-58
2020/12/11 04:11:22;;;;;;;;;62.60;48.00;;;;;6.18;47.67;98007.16;6200590;28;97415;-58
2020/12/11 04:14:24;;;;;;;;;64.60;49.40;;;;;6.10;47.83;98010.91;6197267;28;97158;-58
2020/12/11 04:17:25;;;;;;;;;63.20;50.00;;;;;6.14;47.89;98003.28;6201427;28;97522;-58
2020/12/11 04:20:27;;;;;;;;;65.40;50.00;;;;;6.14;47.75;98005.94;6197028;28;97569;-58
2020/12/11 04:23:28;;;;;;;;;60.50;46.00;;;;;6.14;48.12;98000.59;6201457;28;97795;-58
2020/12/11 04:26:29;;;;;;;;;62.40;48.40;;;;;6.18;47.84;97999.13;6196016;28;96578;-58
2020/12/11 04:29:31;;;;;;;;;60.60;48.00;;;;;6.05;48.10;97992.00;6202029;28;97089;-58
2020/12/11 04:32:32;;;;;;;;;63.00;48.00;;;;;6.18;47.96;97996.44;6194794;28;97629;-58
2020/12/11 04:35:34;;;;;;;;;61.00;48.00;;;;;6.17;47.78;98000.16;6201836;28;98127;-58
2020/12/11 04:38:35;;;;;;;;;60.75;47.25;;;;;6.19;47.77;97998.91;6195035;28;98466;-58
2020/12/11 04:41:42;;;;;;;;;63.25;47.25;;;;;6.24;47.48;98011.66;6202409;28;96688;-58
2020/12/11 04:44:44;;;;;;;;;64.00;48.00;;;;;5.70;46.95;97924.69;6188483;28;98559;-58
2020/12/11 04:47:46;;;;;;;;;62.00;47.80;;;;;6.21;47.54;98004.03;6202390;28;97247;-58
2020/12/11 04:50:48;;;;;;;;;60.00;46.00;;;;;6.20;47.39;97994.38;6196283;28;97518;-58
2020/12/11 04:53:52;;;;;;;;;62.25;48.00;;;;;6.19;47.49;97998.09;6201280;28;98831;-58
2020/12/11 04:56:55;;;;;;;;;62.00;48.00;;;;;6.12;47.24;98000.78;6196071;28;97158;-58
2020/12/11 04:59:56;;;;;;;;;62.40;49.00;;;;;6.08;47.32;98003.09;6200141;28;98242;-58
2020/12/11 05:02:59;;;;;;;;;61.00;47.00;;;;;6.08;47.50;98013.78;6196201;28;97066;-58
2020/12/11 05:06:01;;;;;;;;;60.60;46.40;;;;;6.06;47.11;98007.81;6192569;28;97119;-58
2020/12/11 05:09:17;;;;;;;;;62.40;48.20;;;;;6.08;46.79;98019.16;6195356;28;99097;-58
2020/12/11 05:12:18;;;;;;;;;58.00;46.00;;;;;6.00;46.62;98031.97;6195498;28;97258;-58
2020/12/11 05:15:21;;;;;;;;;60.60;48.00;;;;;5.82;47.09;98018.41;6190465;28;97282;-58
2020/12/11 05:18:24;;;;;;;;;61.67;48.00;;;;;5.89;46.97;98029.94;6194622;28;97080;-58
2020/12/11 05:21:26;;;;;;;;;60.00;45.75;;;;;5.84;46.63;98046.59;6191490;28;97627;-58
2020/12/11 05:24:42;;;;;;;;;64.00;49.00;;;;;5.80;46.51;98042.72;6191528;28;96946;-58
2020/12/11 05:27:45;;;;;;;;;63.20;46.80;;;;;5.80;46.28;98039.22;6182515;28;97659;-58
2020/12/11 05:30:47;;;;;;;;;65.00;49.00;;;;;5.78;46.27;98034.06;6196460;28;97963;-58
2020/12/11 05:34:12;;;;;;;;;60.67;48.00;;;;;5.71;46.34;98035.97;6190625;28;96816;-58
2020/12/11 05:37:13;;;;;;;;;61.00;47.40;;;;;5.72;46.39;98031.44;6192795;28;97053;-58
2020/12/11 05:40:35;;;;;;;;;62.00;48.00;;;;;5.65;45.75;98026.09;6194962;28;97318;-58
2020/12/11 05:43:38;;;;;;;;;64.20;50.00;;;;;5.59;46.01;98029.63;6181840;28;97137;-58
2020/12/11 05:46:40;;;;;;;;;64.00;48.80;;;;;5.32;46.10;97996.00;6193421;28;98777;-58
2020/12/11 05:49:41;;;;;;;;;66.00;49.60;;;;;5.47;46.13;98037.44;6201331;28;97091;-58
2020/12/11 05:52:44;;;;;;;;;62.25;48.00;;;;;5.42;46.07;98029.28;6192388;28;99172;-58
2020/12/11 05:55:46;;;;;;;;;65.00;49.00;;;;;5.33;46.23;98019.81;6198588;28;96918;-58
2020/12/11 05:58:50;;;;;;;;;66.00;48.60;;;;;5.33;46.00;98037.69;6195309;28;97132;-57
2020/12/11 06:01:56;;;;;;;;;65.00;49.25;;;;;5.30;46.12;98044.28;6191493;28;98548;-58
2020/12/11 06:04:59;;;;;;;;;62.20;49.80;;;;;5.25;45.91;98036.06;6185326;28;98065;-58
2020/12/11 06:08:07;;;;;;;;;64.40;48.60;;;;;5.24;45.87;98034.44;6178006;28;97271;-58
2020/12/11 06:11:20;;;;;;;;;62.40;48.00;;;;;5.08;46.07;98016.97;6193549;28;96926;-58
2020/12/11 06:14:31;;;;;;;;;60.60;48.00;;;;;5.19;45.64;98036.91;6187538;28;96909;-58
2020/12/11 06:18:04;;;;;;;;;64.00;49.40;;;;;5.17;45.86;98044.31;6183527;28;97187;-58
2020/12/11 06:21:06;;;;;;;;;64.80;49.80;;;;;5.15;46.09;98041.84;6184680;28;96784;-58
2020/12/11 06:24:26;;;;;;;;;64.00;50.00;;;;;4.96;46.21;98018.66;6196812;28;96905;-58
2020/12/11 06:27:31;;;;;;;;;63.20;49.60;;;;;5.11;46.63;98037.94;6189082;28;98720;-58
2020/12/11 06:30:33;;;;;;;;;67.00;51.00;;;;;5.04;48.05;98038.97;6190402;28;98191;-58
2020/12/11 06:33:36;;;;;;;;;64.60;49.60;;;;;4.93;48.74;98035.09;6181479;28;97279;-58
2020/12/11 06:36:42;;;;;;;;;65.60;48.60;;;;;4.95;49.37;98053.56;6190359;28;97466;-58
2020/12/11 06:39:46;;;;;;;;;66.50;48.50;;;;;5.02;49.75;98059.75;6202778;28;96817;-58
2020/12/11 06:42:48;;;;;;;;;60.75;46.00;;;;;5.05;50.21;98049.47;6183318;28;96558;-58
2020/12/11 06:46:14;;;;;;;;;60.60;47.00;;;;;5.12;49.97;98060.16;6189721;28;97169;-58
2020/12/11 06:49:19;;;;;;;;;58.50;46.00;;;;;5.03;49.99;98053.38;6201730;28;96526;-58
2020/12/11 06:52:21;;;;;;;;;62.00;47.00;;;;;5.12;50.05;98058.31;6198615;28;96740;-58
2020/12/11 06:55:42;;;;;;;;;61.00;48.00;;;;;5.14;50.19;98052.72;6202179;28;97524;-58
2020/12/11 06:58:44;;;;;;;;;61.20;46.80;;;;;4.88;50.18;98021.53;6187924;28;98471;-58
2020/12/11 07:01:45;;;;;;;;;61.00;47.60;;;;;5.14;50.13;98048.22;6183864;28;97465;-58
2020/12/11 07:04:50;;;;;;;;;62.50;48.00;;;;;5.06;50.12;98050.28;6192924;28;96458;-58
2020/12/11 07:07:52;;;;;;;;;60.60;46.00;;;;;5.10;49.98;98054.19;6193657;28;97244;-57
2020/12/11 07:10:53;;;;;;;;;57.67;45.00;;;;;5.12;50.17;98055.63;6198082;28;97426;-58
2020/12/11 07:13:55;;;;;;;;;61.00;46.00;;;;;4.75;49.99;98013.53;6201775;28;96399;-58
2020/12/11 07:16:56;;;;;;;;;57.50;45.25;;;;;5.10;49.88;98049.66;6185828;28;97787;-58
2020/12/11 07:19:58;;;;;;;;;58.00;45.60;;;;;5.14;49.42;98034.84;6188045;28;97513;-58
2020/12/11 07:23:00;;;;;;;;;61.25;46.00;;;;;5.13;49.27;98041.22;6188328;28;97218;-58
2020/12/11 07:26:03;;;;;;;;;60.00;46.40;;;;;5.22;49.60;98034.66;6190018;28;98130;-57
2020/12/11 07:29:09;;;;;;;;;60.20;46.00;;;;;5.34;49.52;98032.16;6196762;28;98508;-58
2020/12/11 07:32:17;;;;;;;;;62.00;46.40;;;;;5.55;48.64;98031.06;6186348;28;97510;-57
2020/12/11 07:35:20;;;;;;;;;61.60;47.80;;;;;5.63;48.57;98028.16;6195003;28;96804;-57
2020/12/11 07:38:27;;;;;;;;;58.20;43.80;;;;;5.55;48.22;98029.22;6193814;28;98510;-57
2020/12/11 07:41:30;;;;;;;;;63.00;46.67;;;;;5.60;48.20;98032.09;6203092;28;96722;-58
2020/12/11 07:44:34;;;;;;;;;58.80;46.00;;;;;5.68;48.48;98036.38;6194171;28;97208;-58
2020/12/11 07:47:36;;;;;;;;;56.00;45.00;;;;;5.77;48.84;98032.41;6179375;28;97652;-58
2020/12/11 07:50:38;;;;;;;;;57.00;44.40;;;;;5.89;49.26;98035.28;6197607;28;98229;-59
2020/12/11 07:53:43;;;;;;;;;57.40;45.80;;;;;5.94;49.45;98030.13;6196010;28;96737;-60
2020/12/11 07:57:10;;;;;;;;;58.00;46.00;;;;;5.91;49.01;98034.03;6192703;28;97152;-60
2020/12/11 08:00:11;;;;;;;;;55.80;43.00;;;;;5.95;49.17;98013.88;6201102;28;97513;-59
2020/12/11 08:03:13;;;;;;;;;58.00;44.00;;;;;6.02;49.56;98017.31;6193715;28;99037;-59
2020/12/11 08:06:14;;;;;;;;;57.00;43.80;;;;;6.20;49.59;98030.00;6192445;28;98263;-60
2020/12/11 08:09:16;;;;;;;;;56.00;42.00;;;;;6.41;49.56;98026.97;6188474;28;99236;-59
2020/12/11 08:12:19;;;;;;;;;55.25;43.00;;;;;6.56;48.69;98034.69;6196815;28;98046;-57
2020/12/11 08:15:28;;;;;;;;;58.60;44.40;;;;;6.56;48.61;97999.06;6191205;28;97761;-58
2020/12/11 08:18:30;;;;;;;;;55.20;44.00;;;;;7.01;48.13;98045.28;6183579;28;96788;-59
2020/12/11 08:21:33;;;;;;;;;58.00;44.00;;;;;7.15;47.79;98044.13;6188246;28;97501;-58
2020/12/11 08:24:34;;;;;;;;;57.60;44.00;;;;;7.59;47.70;98043.03;6186178;28;97437;-58
2020/12/11 08:27:35;;;;;;;;;58.00;44.00;;;;;7.95;46.02;97989.38;6194116;28;97667;-59
2020/12/11 08:30:37;;;;;;;;;55.75;43.00;;;;;8.98;45.06;98038.28;6188271;28;96823;-58
2020/12/11 08:33:39;;;;;;;;;51.75;40.50;;;;;8.99;43.43;98010.31;6190052;28;97237;-58
2020/12/11 08:36:47;;;;;;;;;52.80;43.00;;;;;8.93;42.84;98029.28;6187870;28;98029;-59
2020/12/11 08:40:04;;;;;;;;;57.00;45.50;;;;;8.81;42.95;98033.81;6175604;28;97196;-59
2020/12/11 08:46:27;;;;;;;;;60.00;45.00;;;;;8.54;43.86;98046.84;6179866;28;96664;-60
2020/12/11 08:49:44;;;;;;;;;62.00;47.00;;;;;8.28;44.56;98023.81;6177325;28;97813;-59
2020/12/11 08:52:46;;;;;;;;;62.20;48.00;;;;;8.09;44.49;98022.22;6178161;28;97091;-58
2020/12/11 08:55:48;;;;;;;;;62.00;48.00;;;;;8.28;44.85;98045.28;6173538;28;97085;-58
2020/12/11 08:58:49;;;;;;;;;61.40;47.00;;;;;8.25;45.34;98051.97;6178481;28;96884;-59
2020/12/11 09:01:50;;;;;;;;;60.00;46.00;;;;;8.23;45.26;98045.97;6201019;28;97190;-59
2020/12/11 09:04:53;;;;;;;;;59.50;45.25;;;;;8.03;44.85;98039.22;6195700;28;98672;-59
2020/12/11 09:08:09;;;;;;;;;61.80;47.20;;;;;7.79;45.38;98000.72;6175677;28;97859;-58
2020/12/11 09:11:11;;;;;;;;;60.20;47.40;;;;;7.97;45.34;98032.06;6180319;28;98633;-58
2020/12/11 09:14:13;;;;;;;;;57.60;44.00;;;;;7.99;45.39;98032.69;6197351;28;97569;-59
2020/12/11 09:17:14;;;;;;;;;60.60;45.00;;;;;7.70;45.19;98002.06;6190263;28;97228;-58
2020/12/11 09:20:16;;;;;;;;;58.80;44.00;;;;;7.96;45.03;98023.22;6195355;28;98517;-58
2020/12/11 09:23:18;;;;;;;;;59.60;46.00;;;;;7.93;45.41;98025.53;6190791;28;97621;-58
2020/12/11 09:26:20;;;;;;;;;62.00;47.00;;;;;8.07;45.93;98029.66;6195971;28;97154;-57
2020/12/11 09:29:39;;;;;;;;;60.60;46.00;;;;;8.19;45.57;98026.00;6192379;28;98153;-58
2020/12/11 09:36:00;;;;;;;;;58.25;44.00;;;;;8.21;45.55;98017.72;6193382;28;98548;-59
2020/12/11 09:39:03;;;;;;;;;58.00;44.75;;;;;8.04;45.73;98014.84;6191966;28;96699;-58
2020/12/11 09:42:19;;;;;;;;;60.00;46.00;;;;;8.10;46.27;98019.31;6198361;28;98114;-58
2020/12/11 09:45:34;;;;;;;;;55.75;43.00;;;;;8.13;46.21;98010.81;6198924;28;97205;-58
2020/12/11 09:54:41;;;;;;;;;55.00;43.00;;;;;8.23;46.67;98000.34;6197441;28;97276;-59
2020/12/11 09:57:42;;;;;;;;;57.40;44.60;;;;;8.30;46.41;98000.28;6190126;28;97025;-58
2020/12/11 10:00:47;;;;;;;;;59.00;44.00;;;;;8.42;46.37;97994.94;6186297;28;97942;-58
2020/12/11 10:03:49;;;;;;;;;57.50;45.25;;;;;8.54;46.12;97985.03;6183019;28;98234;-59
2020/12/11 10:06:50;;;;;;;;;58.00;44.00;;;;;8.56;45.99;97980.25;6183538;28;96665;-59
2020/12/11 10:09:51;;;;;;;;;56.50;44.50;;;;;8.66;46.04;97992.06;6189269;28;97163;-58
2020/12/11 10:12:53;;;;;;;;;57.00;45.00;;;;;8.51;45.95;97983.63;6196413;28;98417;-59
2020/12/11 10:15:54;;;;;;;;;56.00;44.00;;;;;8.42;45.83;97986.88;6201071;28;96971;-59
2020/12/11 10:18:57;;;;;;;;;59.20;45.40;;;;;8.48;46.12;97992.16;6191698;28;97541;-59
2020/12/11 10:21:58;;;;;;;;;54.75;43.50;;;;;8.52;46.30;97981.75;6185930;28;97709;-59
2020/12/11 10:25:00;;;;;;;;;57.80;44.20;;;;;8.50;46.24;97983.88;6196749;28;97101;-59
2020/12/11 10:28:01;;;;;;;;;55.80;45.00;;;;;8.50;46.17;97971.22;6180999;28;97316;-60
2020/12/11 10:31:03;;;;;;;;;56.60;43.00;;;;;8.51;45.92;97977.44;6189523;28;97590;-59
2020/12/11 10:34:04;;;;;;;;;54.60;42.60;;;;;8.43;45.88;97954.41;6187874;28;96974;-59
2020/12/11 10:37:07;;;;;;;;;57.60;43.60;;;;;8.45;46.00;97968.44;6196297;28;98050;-59
2020/12/11 10:40:08;;;;;;;;;52.75;41.75;;;;;8.48;46.19;97959.91;6196609;28;96684;-59
2020/12/11 10:43:10;;;;;;;;;55.50;43.00;;;;;8.50;46.41;97963.19;6185827;28;96820;-59
2020/12/11 10:46:11;;;;;;;;;55.00;42.00;;;;;8.55;46.04;97955.25;6192279;28;97404;-59
2020/12/11 10:49:13;;;;;;;;;56.33;43.00;;;;;8.63;45.64;97951.41;6190483;28;96939;-58
2020/12/11 10:52:16;;;;;;;;;58.00;44.60;;;;;8.44;45.85;97933.75;6181106;28;97082;-59
2020/12/11 10:55:18;;;;;;;;;55.50;44.25;;;;;8.61;45.81;97951.63;6189942;28;98451;-59
2020/12/11 10:58:19;;;;;;;;;57.25;46.00;;;;;8.62;45.99;97947.91;6177835;28;98368;-59
2020/12/11 11:01:20;;;;;;;;;55.60;43.00;;;;;8.46;46.16;97937.00;6192284;28;97535;-59
2020/12/11 11:04:24;;;;;;;;;53.00;42.25;;;;;8.22;46.33;97933.44;6209058;28;97429;-59
2020/12/11 11:07:28;;;;;;;;;58.20;45.00;;;;;8.30;46.43;97932.34;6172687;28;97270;-58
2020/12/11 11:10:40;;;;;;;;;59.60;45.20;;;;;8.14;46.89;97933.78;6195491;28;97981;-59
2020/12/11 11:14:03;;;;;;;;;53.25;43.00;;;;;8.18;46.99;97927.72;6177051;28;96745;-58
2020/12/11 11:24:06;;;;;;;;;51.80;41.20;;;;;7.94;47.11;97928.69;6196803;28;97474;-59
2020/12/11 11:29:45;;;;;;;;;56.40;44.40;;;;;7.78;47.94;97921.28;6203221;28;97022;-59
2020/12/11 11:32:49;;;;;;;;;57.40;42.00;;;;;7.55;48.17;97905.06;6192319;28;97709;-59
2020/12/11 11:35:51;;;;;;;;;56.20;42.00;;;;;7.59;48.55;97917.81;6193224;28;98458;-59
2020/12/11 11:38:53;;;;;;;;;54.25;42.00;;;;;7.66;48.68;97909.69;6190461;28;98632;-59
2020/12/11 11:41:57;;;;;;;;;53.00;43.00;;;;;7.69;48.71;97898.50;6184825;28;97414;-58
2020/12/11 11:45:01;;;;;;;;;55.00;43.00;;;;;7.76;48.48;97900.06;6174140;28;97855;-59
2020/12/11 11:48:10;;;;;;;;;54.20;42.60;;;;;7.77;48.68;97900.88;6180371;28;97559;-59
2020/12/11 11:51:19;;;;;;;;;57.40;43.00;;;;;7.67;48.72;97897.91;6182950;28;97098;-59
2020/12/11 11:54:20;;;;;;;;;50.00;41.00;;;;;7.73;48.69;97900.50;6194419;28;97370;-58
2020/12/11 11:57:22;;;;;;;;;49.20;39.20;;;;;7.60;48.80;97905.22;6183855;28;98399;-59
2020/12/11 12:00:23;;;;;;;;;50.00;39.50;;;;;7.52;48.98;97905.53;6183490;28;98445;-58
2020/12/11 12:03:25;;;;;;;;;52.75;40.75;;;;;7.39;49.08;97875.16;6189624;28;97465;-58
2020/12/11 12:06:26;;;;;;;;;55.80;42.00;;;;;7.59;49.21;97900.91;6171726;28;97529;-58
2020/12/11 12:09:28;;;;;;;;;52.40;40.60;;;;;7.57;49.30;97893.09;6187828;28;97660;-59
2020/12/11 12:12:29;;;;;;;;;50.40;40.80;;;;;7.54;49.12;97866.72;6192007;28;97260;-58
2020/12/11 12:15:32;;;;;;;;;52.00;40.40;;;;;7.49;48.99;97861.22;6188194;28;97199;-59
2020/12/11 12:18:38;;;;;;;;;53.40;41.00;;;;;7.71;49.09;97891.88;6185081;28;97419;-59
2020/12/11 12:31:38;;;;;;;;;51.80;39.60;;;;;7.90;49.21;97881.06;6200888;27;97199;-60
2020/12/11 12:37:46;;;;;;;;;49.00;40.00;;;;;7.77;49.30;97882.09;6176559;28;97019;-59
2020/12/11 12:44:08;;;;;;;;;52.00;39.60;;;;;6.90;51.04;97883.38;6169305;28;96633;-58
2020/12/11 12:47:10;;;;;;;;;52.00;39.75;;;;;7.11;50.96;97872.22;6188553;28;98683;-58
2020/12/11 12:50:12;;;;;;;;;51.20;41.00;;;;;7.24;50.98;97874.72;6192604;28;96712;-58
2020/12/11 12:53:13;;;;;;;;;48.20;38.20;;;;;7.24;50.73;97882.75;6194052;28;97160;-60
2020/12/11 13:05:49;;;;;;;;;57.50;43.00;;;;;7.36;50.81;97859.53;6200936;28;96533;-59
2020/12/11 13:08:50;;;;;;;;;56.00;42.20;;;;;7.32;51.06;97854.84;6194454;28;97113;-59
2020/12/11 13:11:51;;;;;;;;;55.60;44.00;;;;;7.54;50.81;97865.88;6185557;28;96945;-58
2020/12/11 13:14:53;;;;;;;;;53.60;41.00;;;;;7.48;50.94;97822.03;6196492;28;96930;-59
2020/12/11 13:17:54;;;;;;;;;56.00;42.40;;;;;7.82;50.88;97855.38;6192074;28;97433;-59
2020/12/11 13:21:02;;;;;;;;;52.80;40.80;;;;;7.75;50.51;97849.28;6195698;28;97200;-59
2020/12/11 13:27:28;;;;;;;;;49.60;39.00;;;;;7.71;50.70;97843.59;6176699;28;96660;-59
2020/12/11 13:30:30;;;;;;;;;52.00;39.25;;;;;7.76;50.45;97846.41;6183024;28;97236;-58
2020/12/11 13:33:31;;;;;;;;;48.60;37.40;;;;;7.82;50.28;97847.31;6179605;28;97709;-58
2020/12/11 13:36:33;;;;;;;;;50.50;39.00;;;;;7.95;50.39;97846.31;6181823;28;97197;-59
2020/12/11 13:39:35;;;;;;;;;52.00;40.00;;;;;8.06;50.13;97840.94;6178259;28;97381;-59
2020/12/11 13:42:36;;;;;;;;;49.20;38.00;;;;;8.14;49.71;97837.13;6184757;28;97369;-58
2020/12/11 13:45:37;;;;;;;;;46.00;38.00;;;;;8.26;49.53;97835.25;6182386;28;96839;-58
2020/12/11 13:48:39;;;;;;;;;48.80;38.00;;;;;8.34;49.26;97837.66;6192756;28;97465;-58
2020/12/11 13:51:42;;;;;;;;;46.60;35.60;;;;;8.37;49.02;97834.50;6195883;28;98844;-58
2020/12/11 13:54:44;;;;;;;;;50.60;38.00;;;;;8.38;48.95;97827.25;6195695;28;98199;-58
2020/12/11 13:57:45;;;;;;;;;45.00;35.75;;;;;8.35;48.54;97830.41;6195728;28;98658;-57
2020/12/11 14:00:47;;;;;;;;;46.60;36.00;;;;;8.25;48.75;97839.03;6202181;28;96972;-58
2020/12/11 14:03:49;;;;;;;;;42.00;35.00;;;;;8.12;48.91;97825.78;6195806;28;96677;-59
2020/12/11 14:06:51;;;;;;;;;48.60;35.60;;;;;8.04;49.14;97836.88;6201667;28;98284;-58
2020/12/11 14:09:52;;;;;;;;;47.00;37.20;;;;;8.05;49.54;97836.66;6176075;28;96659;-58
2020/12/11 14:12:53;;;;;;;;;47.00;36.00;;;;;8.00;49.39;97838.41;6173285;28;97139;-58
2020/12/11 14:15:55;;;;;;;;;45.00;35.00;;;;;7.86;49.36;97843.16;6180560;28;96642;-58
2020/12/11 14:25:31;;;;;;;;;48.00;36.00;;;;;7.75;49.73;97822.47;6185115;28;98760;-58
2020/12/11 14:28:33;;;;;;;;;45.00;35.00;;;;;7.87;49.81;97842.09;6201444;28;97291;-58
2020/12/11 14:31:38;;;;;;;;;46.20;36.40;;;;;7.93;49.92;97838.50;6187082;28;97235;-58
2020/12/11 14:34:44;;;;;;;;;47.00;36.00;;;;;7.97;49.90;97836.97;6196861;28;99212;-58
2020/12/11 14:37:47;;;;;;;;;48.25;36.00;;;;;8.05;49.73;97842.03;6204474;28;97773;-58
2020/12/11 14:40:48;;;;;;;;;47.00;35.00;;;;;7.97;49.62;97841.53;6200384;28;97442;-58
2020/12/11 14:43:51;;;;;;;;;43.20;34.20;;;;;7.85;49.69;97825.41;6191082;28;97498;-58
2020/12/11 14:46:53;;;;;;;;;45.40;34.20;;;;;7.97;49.58;97823.56;6199939;28;97586;-58
2020/12/11 14:49:55;;;;;;;;;44.00;34.50;;;;;8.05;49.64;97822.41;6195444;28;96549;-58
2020/12/11 14:52:56;;;;;;;;;46.40;35.00;;;;;8.08;49.35;97821.94;6197533;28;97468;-58
2020/12/11 14:55:58;;;;;;;;;45.80;35.20;;;;;8.16;49.35;97821.63;6195560;28;97085;-58
2020/12/11 14:58:59;;;;;;;;;43.20;34.80;;;;;8.17;49.20;97816.00;6201664;28;97767;-58
2020/12/11 15:02:00;;;;;;;;;46.40;36.40;;;;;8.23;49.29;97812.41;6196536;28;97248;-58
2020/12/11 15:05:02;;;;;;;;;43.40;34.60;;;;;8.20;48.92;97828.16;6189559;28;96988;-58
2020/12/11 15:08:04;;;;;;;;;48.60;38.00;;;;;8.25;48.83;97813.00;6184229;28;98561;-59
2020/12/11 15:11:10;;;;;;;;;47.75;35.75;;;;;8.20;49.05;97807.50;6195818;28;97538;-58